Data for 05/02/2016

Time Sea-Level Adjusted Pressure Absolute Pressure Temperature Relative Humidity Dew Point   
(mb) (inHg) (mb) (inHg) (C) (F) (%) (C) (F)
00:05 1024 30.24 853 25.19 6.4 43.5 52 -2.8 27
00:10 1024 30.24 853 25.19 6.5 43.7 52 -2.7 27.2
00:15 1024 30.24 853 25.19 6.3 43.4 53 -2.5 27.5
00:20 1024 30.24 853 25.19 5.9 42.6 55 -2.6 27.4
00:25 1024 30.24 853 25.19 5.6 42.1 56 -2.5 27.5
00:30 1024 30.24 853 25.19 5.4 41.7 56 -2.7 27.2
00:35 1024 30.24 853 25.19 5.3 41.5 57 -2.6 27.4
00:40 1024 30.24 853 25.19 5.1 41.2 58 -2.5 27.5
00:45 1023 30.21 853 25.19 5 40.9 59 -2.5 27.5
00:50 1024 30.24 853 25.19 4.8 40.6 60 -2.4 27.7
00:55 1024 30.24 853 25.19 4.6 40.4 61 -2.3 27.8
01:00 1024 30.24 853 25.19 4.6 40.2 61 -2.4 27.7
01:05 1024 30.24 853 25.19 4.5 40.2 61 -2.3 27.9
01:10 1024 30.24 853 25.19 4.4 39.8 62 -2.3 27.9
01:15 1024 30.24 853 25.19 4.2 39.6 61 -2.6 27.4
01:20 1024 30.24 853 25.19 4.3 39.7 62 -2.4 27.7
01:25 1024 30.24 853 25.19 4 39.3 63 -2.3 27.9
01:30 1024 30.24 853 25.19 3.8 38.9 63 -2.5 27.6
01:35 1024 30.24 853 25.19 4 39.1 63 -2.4 27.7
01:40 1024 30.24 853 25.19 3.9 39.1 64 -2.3 27.9
01:45 1024 30.24 853 25.19 4 39.2 63 -2.5 27.5
01:50 1023 30.21 853 25.19 4.2 39.5 62 -2.5 27.5
01:55 1023 30.21 853 25.19 4.2 39.6 62 -2.4 27.6
02:00 1023 30.21 853 25.19 4 39.1 62 -2.6 27.3
02:05 1023 30.21 853 25.19 4 39.2 61 -2.8 27
02:10 1023 30.21 853 25.19 3.9 39.1 62 -2.7 27.2
02:15 1023 30.21 853 25.19 3.9 38.9 60 -3.2 26.2
02:20 1023 30.21 853 25.19 4.2 39.5 58 -3.3 26
02:25 1023 30.21 853 25.19 4.3 39.7 58 -3.3 26.1
02:30 1023 30.21 853 25.19 4.3 39.7 56 -3.6 25.4
02:35 1023 30.21 853 25.19 4.8 40.6 57 -3.1 26.4
02:40 1023 30.21 853 25.19 4.2 39.6 58 -3.4 25.9
02:45 1023 30.21 853 25.19 4.4 39.9 58 -3.1 26.4
02:50 1023 30.21 853 25.19 4.1 39.5 56 -3.9 25
02:55 1023 30.21 853 25.19 4.2 39.5 58 -3.3 26.1
03:00 1023 30.21 853 25.19 3.9 39.1 59 -3.3 26
03:05 1023 30.21 853 25.19 4.1 39.3 56 -3.9 25
03:10 1023 30.21 853 25.19 4.6 40.2 57 -3.3 26.1
03:15 1023 30.21 853 25.19 4.2 39.5 59 -3.1 26.4
03:20 1023 30.21 853 25.19 4 39.1 60 -3.1 26.4
03:25 1023 30.21 853 25.19 3.8 38.8 61 -3.1 26.5
03:30 1023 30.21 853 25.19 3.4 38.2 63 -2.9 26.7
03:35 1023 30.21 853 25.19 3.1 37.5 64 -3 26.6
03:40 1023 30.21 853 25.19 2.9 37.2 65 -3 26.5
03:45 1023 30.21 853 25.19 2.8 37.1 64 -3.3 26.1
03:50 1023 30.21 853 25.19 3 37.4 63 -3.3 26.1
03:55 1024 30.24 853 25.19 3.1 37.6 63 -3.3 26
04:00 1024 30.24 853 25.19 3.4 38.2 60 -3.5 25.7
04:05 1024 30.24 853 25.19 3.5 38.3 61 -3.2 26.2
04:10 1024 30.24 853 25.19 3.1 37.6 63 -3.2 26.2
04:15 1024 30.24 853 25.19 2.8 37 65 -3.2 26.3
04:20 1024 30.24 853 25.19 2.6 36.8 65 -3.3 26
04:25 1024 30.24 853 25.19 2.8 37 64 -3.4 26
04:30 1024 30.24 853 25.19 2.9 37.3 64 -3.2 26.2
04:35 1024 30.24 853 25.19 3 37.4 64 -3.2 26.2
04:40 1024 30.24 853 25.19 3.1 37.7 63 -3.2 26.3
04:45 1024 30.24 853 25.19 3.4 38.1 62 -3.1 26.4
04:50 1024 30.24 853 25.19 3.2 37.8 64 -3 26.7
04:55 1024 30.24 853 25.19 2.9 37.2 66 -2.9 26.8
05:00 1024 30.24 853 25.19 2.8 37 65 -3.1 26.4
05:05 1024 30.24 853 25.19 2.8 37 65 -3.2 26.2
05:10 1024 30.24 853 25.19 2.8 37 64 -3.3 26.1
05:15 1024 30.24 853 25.19 2.6 36.7 66 -3.2 26.3
05:20 1024 30.24 853 25.19 2.4 36.3 66 -3.4 25.9
05:25 1024 30.24 853 25.19 2.6 36.6 61 -4.3 24.3
05:30 1024 30.24 853 25.19 3.2 37.8 61 -3.6 25.5
05:35 1024 30.24 853 25.19 3.3 38 62 -3.4 25.9
05:40 1024 30.24 853 25.19 3.3 37.9 62 -3.2 26.2
05:45 1024 30.24 853 25.19 3.2 37.7 63 -3.1 26.4
05:50 1024 30.24 853 25.19 3.1 37.5 64 -3.1 26.5
05:55 1024 30.24 853 25.19 3.1 37.6 64 -3 26.5
06:00 1024 30.24 853 25.19 3.1 37.6 64 -3 26.6
06:05 1024 30.24 853 25.19 3.5 38.2 62 -3.1 26.4
06:10 1024 30.24 853 25.19 3.8 38.9 61 -2.9 26.8
06:15 1024 30.24 854 25.22 4 39.3 60 -3 26.6
06:20 1024 30.24 854 25.22 4.3 39.7 60 -2.8 27
06:25 1024 30.24 854 25.22 4.5 40.1 59 -2.9 26.7
06:30 1025 30.27 854 25.22 4.9 40.7 57 -2.9 26.8
06:35 1025 30.27 854 25.22 5.1 41.1 57 -2.8 27
06:40 1025 30.27 854 25.22 5.4 41.8 57 -2.5 27.6
06:45 1025 30.27 854 25.22 5.3 41.6 58 -2.3 27.9
06:50 1025 30.27 854 25.22 5.1 41.3 58 -2.5 27.5
06:55 1025 30.27 854 25.22 5.2 41.4 58 -2.4 27.7
07:00 1025 30.27 854 25.22 5.6 42 58 -2.2 28.1
07:05 1025 30.27 854 25.22 6 42.8 55 -2.3 27.8
07:10 1025 30.27 854 25.22 6.3 43.3 55 -2.1 28.2
07:15 1025 30.27 854 25.22 6.7 44 54 -1.9 28.5
07:20 1025 30.27 854 25.22 7.1 44.7 52 -2.1 28.3
07:25 1025 30.27 854 25.22 7.3 45.2 51 -2.1 28.2
07:30 1025 30.27 854 25.22 7.8 46.1 49 -2.1 28.3
07:35 1025 30.27 854 25.22 8.3 47 47 -2.3 27.9
07:40 1025 30.27 854 25.22 8.7 47.7 45 -2.4 27.6
07:45 1025 30.27 854 25.22 9.1 48.3 43 -2.7 27.2
07:50 1025 30.27 854 25.22 9.9 49.7 40 -3 26.7
07:55 1025 30.27 854 25.22 10.2 50.3 42 -2.1 28.1
08:00 1025 30.27 854 25.22 9.9 49.8 41 -2.7 27.2
08:05 1025 30.27 854 25.22 10.2 50.3 40 -2.9 26.7
08:10 1025 30.27 854 25.22 10.4 50.8 41 -2.1 28.2
08:15 1025 30.27 854 25.22 10.7 51.2 36 -3.6 25.5
08:20 1025 30.27 854 25.22 11.3 52.3 36 -3.2 26.3
08:25 1025 30.27 854 25.22 11.4 52.4 36 -3.1 26.4
08:30 1025 30.27 854 25.22 11.1 52.1 38 -2.8 27
08:35 1025 30.27 854 25.22 11 51.8 38 -2.9 26.9
08:40 1025 30.27 854 25.22 10.7 51.3 38 -2.9 26.8
08:45 1025 30.27 854 25.22 11.4 52.6 36 -3 26.6
08:50 1025 30.27 854 25.22 12 53.6 34 -3.2 26.3
08:55 1025 30.27 854 25.22 12 53.6 36 -2.8 27
09:00 1025 30.27 854 25.22 11.9 53.4 35 -3 26.7
09:05 1025 30.27 854 25.22 11.9 53.3 35 -3.2 26.3
09:10 1025 30.27 854 25.22 12.6 54.7 34 -2.7 27.1
09:15 1025 30.27 854 25.22 12.8 55 33 -2.8 26.9
09:20 1025 30.27 854 25.22 13.2 55.7 34 -2.5 27.5
09:25 1025 30.27 854 25.22 13.2 55.8 32 -2.9 26.8
09:30 1024 30.24 854 25.22 12.8 55 33 -3.2 26.2
09:35 1024 30.24 854 25.22 13.4 56.1 32 -2.9 26.8
09:40 1024 30.24 854 25.22 13.8 56.8 32 -2.7 27.1
09:45 1024 30.24 854 25.22 14.3 57.7 32 -2.2 28.1
09:50 1024 30.24 854 25.22 13.9 57 33 -2.1 28.2
09:55 1024 30.24 854 25.22 13 55.3 35 -1.9 28.5
10:00 1024 30.24 854 25.22 13.3 56 34 -2.3 27.8
10:05 1024 30.24 854 25.22 13.9 57.1 31 -2.9 26.8
10:10 1024 30.24 854 25.22 14.2 57.5 32 -2.3 27.9
10:15 1024 30.24 854 25.22 14.2 57.6 32 -2.3 27.9
10:20 1024 30.24 854 25.22 14.8 58.7 30 -2.5 27.6
10:25 1024 30.24 854 25.22 14.4 57.9 31 -2.3 27.9
10:30 1024 30.24 854 25.22 15.3 59.5 30 -2.2 28.1
10:35 1024 30.24 854 25.22 15.2 59.3 29 -2.6 27.4
10:40 1024 30.24 854 25.22 14.9 58.7 29 -3 26.6
10:45 1024 30.24 854 25.22 15.3 59.5 28 -3 26.5
10:50 1024 30.24 854 25.22 15.2 59.4 28 -3.1 26.4
10:55 1024 30.24 854 25.22 15.5 59.9 27 -3.5 25.7
11:00 1024 30.24 854 25.22 15.8 60.4 25 -3.9 25
11:05 1024 30.24 853 25.19 15.7 60.3 27 -3.4 26
11:10 1024 30.24 853 25.19 16.1 60.9 27 -2.8 27
11:15 1024 30.24 853 25.19 16.4 61.4 25 -3.4 25.9
11:20 1024 30.24 853 25.19 15.5 59.8 27 -3.5 25.8
11:25 1024 30.24 853 25.19 15.7 60.2 26 -3.6 25.5
11:30 1024 30.24 853 25.19 16.4 61.4 24 -4.2 24.5
11:35 1024 30.24 853 25.19 16.6 61.9 22 -5 22.9
11:40 1024 30.24 853 25.19 16.4 61.6 23 -4.8 23.3
11:45 1024 30.24 853 25.19 16.7 62 22 -5 22.9
11:50 1024 30.24 853 25.19 17 62.5 22 -5.1 22.8
11:55 1024 30.24 853 25.19 17.2 63 20 -5.8 21.6
12:00 1024 30.24 853 25.19 17.5 63.5 20 -5.9 21.4
12:05 1024 30.24 853 25.19 17.7 63.9 18 -6.7 20
12:10 1024 30.24 853 25.19 17.8 64.1 18 -6.9 19.5
12:15 1024 30.24 853 25.19 18 64.4 17 -7.4 18.7
12:20 1024 30.24 853 25.19 17.8 64 16 -8.2 17.3
12:25 1024 30.24 853 25.19 18.4 65.1 17 -7 19.4
12:30 1024 30.24 853 25.19 18.7 65.6 19 -5.5 22.1
12:35 1024 30.24 853 25.19 18.6 65.5 18 -6.4 20.5
12:40 1024 30.24 853 25.19 18.1 64.5 15 -8.9 16
12:45 1024 30.24 853 25.19 18.3 64.9 15 -8.9 16
12:50 1024 30.24 853 25.19 18.3 65 14 -9.4 15
12:55 1023 30.21 853 25.19 18.2 64.8 15 -8.5 16.7
13:00 1023 30.21 853 25.19 18.7 65.7 13 -9.8 14.4
13:05 1023 30.21 853 25.19 18.9 66.1 15 -8.4 17
13:10 1023 30.21 853 25.19 18.5 65.4 15 -8.8 16.2
13:15 1023 30.21 853 25.19 18.3 65 15 -8.5 16.7
13:20 1023 30.21 852 25.16 18.8 65.8 13 -10.2 13.7
13:25 1023 30.21 852 25.16 18.3 64.9 16 -8.2 17.2
13:30 1023 30.21 852 25.16 18.5 65.3 17 -6.9 19.6
13:35 1023 30.21 852 25.16 19.2 66.6 15 -8.3 17
13:40 1023 30.21 852 25.16 19.5 67.2 15 -7.3 18.8
13:45 1023 30.21 852 25.16 19.7 67.4 17 -5.9 21.4
13:50 1023 30.21 852 25.16 19.5 67.2 14 -8.4 16.9
13:55 1023 30.21 852 25.16 20 68 12 -10.1 13.8
14:00 1023 30.21 852 25.16 19.7 67.5 13 -9.1 15.6
14:05 1023 30.21 852 25.16 19.1 66.3 14 -8.6 16.6
14:10 1023 30.21 852 25.16 18.2 64.8 13 -10.1 13.8
14:15 1023 30.21 852 25.16 19.3 66.8 14 -8.9 16
14:20 1023 30.21 852 25.16 19.8 67.6 13 -9.4 15
14:25 1023 30.21 852 25.16 20.1 68.2 12 -9.7 14.6
14:30 1023 30.21 852 25.16 19.9 67.8 12 -9.9 14.3
14:35 1023 30.21 852 25.16 19.6 67.2 14 -8.3 17
14:40 1023 30.21 852 25.16 19.8 67.6 14 -8.3 17
14:45 1022 30.18 852 25.16 19.9 67.7 15 -7.8 17.9
14:50 1022 30.18 852 25.16 20 67.9 14 -8.3 17.1
14:55 1022 30.18 852 25.16 20.2 68.3 15 -7 19.4
15:00 1022 30.18 851 25.13 20.2 68.4 14 -7.9 17.8
15:05 1022 30.18 851 25.13 19.9 67.8 17 -6 21.2
15:10 1022 30.18 851 25.13 20.3 68.5 15 -7.2 19.1
15:15 1022 30.18 851 25.13 20.7 69.2 15 -6.6 20.1
15:20 1022 30.18 851 25.13 20.3 68.5 16 -6.2 20.8
15:25 1022 30.18 851 25.13 20.5 68.8 16 -6.4 20.4
15:30 1022 30.18 851 25.13 20.4 68.8 16 -5.7 21.7
15:35 1022 30.18 851 25.13 20.7 69.2 15 -6.8 19.7
15:40 1022 30.18 851 25.13 21 69.7 16 -5.9 21.4
15:45 1022 30.18 851 25.13 20.5 68.9 17 -5 23
15:50 1022 30.18 851 25.13 20.3 68.5 18 -4.5 24
15:55 1022 30.18 851 25.13 20.3 68.5 18 -5 23
16:00 1022 30.18 851 25.13 20.5 68.9 19 -3.7 25.3
16:05 1022 30.18 851 25.13 20.2 68.4 17 -5.4 22.4
16:10 1022 30.18 851 25.13 20.4 68.6 17 -5.6 21.9
16:15 1022 30.18 851 25.13 20.3 68.6 16 -6.4 20.6
16:20 1022 30.18 851 25.13 20.2 68.3 18 -5.1 22.8
16:25 1022 30.18 851 25.13 20.3 68.5 17 -5.5 22.1
16:30 1022 30.18 851 25.13 20.2 68.4 17 -5.7 21.8
16:35 1022 30.18 851 25.13 20.1 68.2 15 -7 19.4
16:40 1022 30.18 851 25.13 19.9 67.9 16 -6.9 19.5
16:45 1022 30.18 851 25.13 19.8 67.6 15 -7.3 18.9
16:50 1022 30.18 851 25.13 19.5 67.1 15 -7.9 17.8
16:55 1022 30.18 851 25.13 19.2 66.5 15 -8.1 17.4
17:00 1022 30.18 851 25.13 19.5 67.2 15 -8 17.6
17:05 1022 30.18 851 25.13 19.8 67.6 14 -8.4 16.9
17:10 1022 30.18 851 25.13 19.2 66.5 13 -9.4 15.1
17:15 1022 30.18 851 25.13 18.8 65.8 14 -9.3 15.2
17:20 1022 30.18 851 25.13 19.6 67.3 13 -9.6 14.8
17:25 1022 30.18 851 25.13 19.9 67.8 13 -9.3 15.2
17:30 1022 30.18 851 25.13 20.1 68.2 12 -9.6 14.7
17:35 1022 30.18 851 25.13 20.1 68.2 12 -9.7 14.6
17:40 1022 30.18 851 25.13 19.9 67.8 12 -9.8 14.3
17:45 1022 30.18 851 25.13 19.6 67.3 13 -9.6 14.7
17:50 1022 30.18 851 25.13 19.2 66.5 13 -9.7 14.5
17:55 1022 30.18 851 25.13 19 66.2 13 -10 14
18:00 1022 30.18 851 25.13 18.8 65.8 13 -10.5 13.1
18:05 1022 30.18 851 25.13 18.4 65.1 13 -10.5 13.2
18:10 1022 30.18 851 25.13 18.3 65 13 -10.3 13.4
18:15 1022 30.18 851 25.13 18.5 65.2 13 -10.3 13.5
18:20 1022 30.18 851 25.13 18.4 65.1 13 -10.3 13.5
18:25 1022 30.18 851 25.13 18.4 65.1 13 -10.1 13.8
18:30 1022 30.18 851 25.13 18.4 65.2 13 -10.8 12.6
18:35 1022 30.18 851 25.13 18.3 64.9 13 -10.5 13.2
18:40 1022 30.18 851 25.13 18.2 64.8 13 -11 12.2
18:45 1022 30.18 851 25.13 18.2 64.7 13 -10.6 12.8
18:50 1022 30.18 851 25.13 18.1 64.6 13 -10.8 12.5
18:55 1022 30.18 851 25.13 18 64.4 13 -10.8 12.5
19:00 1022 30.18 851 25.13 17.9 64.3 13 -11.1 12
19:05 1022 30.18 851 25.13 17.9 64.1 13 -11 12.1
19:10 1022 30.18 851 25.13 17.7 63.8 13 -10.8 12.6
19:15 1022 30.18 851 25.13 17.5 63.5 14 -10.1 13.8
19:20 1022 30.18 851 25.13 17.3 63.2 14 -10.7 12.7
19:25 1022 30.18 851 25.13 17.2 63 14 -10.7 12.7
19:30 1022 30.18 851 25.13 17.1 62.8 14 -10.4 13.2
19:35 1022 30.18 851 25.13 17 62.6 14 -11 12.2
19:40 1022 30.18 851 25.13 16.8 62.2 15 -9.9 14.2
19:45 1022 30.18 851 25.13 16.2 61.1 22 -5.7 21.7
19:50 1022 30.18 851 25.13 15 59 26 -4.4 24.1
19:55 1022 30.18 851 25.13 14.2 57.5 27 -4.5 24
20:00 1022 30.18 851 25.13 13.5 56.3 28 -4.5 23.9
20:05 1022 30.18 851 25.13 13.1 55.5 29 -4.5 24
20:10 1022 30.18 851 25.13 12.7 54.9 30 -4.4 24
20:15 1022 30.18 851 25.13 12.5 54.5 31 -4.2 24.4
20:20 1022 30.18 851 25.13 12.3 54.1 32 -3.9 25
20:25 1022 30.18 851 25.13 12 53.5 32 -4.1 24.6
20:30 1022 30.18 851 25.13 11.7 53.1 32 -4.3 24.3
20:35 1022 30.18 851 25.13 11.4 52.5 35 -3.4 25.9
20:40 1022 30.18 851 25.13 10.9 51.6 34 -4.4 24.1
20:45 1022 30.18 851 25.13 11 51.8 32 -4.9 23.1
20:50 1022 30.18 851 25.13 11.1 52 33 -4.6 23.8
20:55 1022 30.18 851 25.13 10.9 51.6 33 -4.6 23.7
21:00 1022 30.18 851 25.13 11 51.8 34 -4.1 24.7
21:05 1022 30.18 851 25.13 10.8 51.5 35 -3.8 25.1
21:10 1022 30.18 851 25.13 10.6 51.1 37 -3.6 25.6
21:15 1022 30.18 851 25.13 10.3 50.5 37 -3.8 25.2
21:20 1022 30.18 851 25.13 10.2 50.4 37 -3.7 25.4
21:25 1022 30.18 851 25.13 10.1 50.2 38 -3.6 25.4
21:30 1022 30.18 851 25.13 10 49.9 38 -3.5 25.7
21:35 1022 30.18 851 25.13 9.8 49.7 39 -3.3 26
21:40 1022 30.18 851 25.13 9.8 49.7 39 -3.6 25.5
21:45 1022 30.18 851 25.13 10 50 38 -3.7 25.4
21:50 1022 30.18 851 25.13 10.1 50.1 37 -4 24.9
21:55 1022 30.18 851 25.13 10.1 50.2 37 -4 24.8
22:00 1022 30.18 851 25.13 10.2 50.4 35 -4.6 23.7
22:05 1022 30.18 852 25.16 10.6 51 34 -4.8 23.4
22:10 1022 30.18 851 25.13 10.8 51.4 32 -5.4 22.3
22:15 1022 30.18 851 25.13 10.7 51.3 33 -4.8 23.3
22:20 1022 30.18 851 25.13 10.5 50.8 33 -5 23.1
22:25 1022 30.18 851 25.13 10.1 50.2 34 -4.9 23.1
22:30 1022 30.18 852 25.16 9.9 49.9 35 -4.7 23.5
22:35 1022 30.18 851 25.13 9.7 49.5 36 -4.6 23.7
22:40 1022 30.18 852 25.16 9.6 49.2 37 -4.5 24
22:45 1022 30.18 852 25.16 9.6 49.2 35 -5 22.9
22:50 1022 30.18 851 25.13 9.9 49.8 34 -5.3 22.5
22:55 1022 30.18 851 25.13 9.9 49.9 36 -4.5 23.9
23:00 1022 30.18 851 25.13 9.6 49.4 36 -4.7 23.6
23:05 1022 30.18 851 25.13 9.8 49.6 35 -5 23.1
23:10 1022 30.18 851 25.13 9.9 49.8 35 -4.7 23.5
23:15 1022 30.18 851 25.13 9.7 49.5 37 -4.1 24.7
23:20 1022 30.18 851 25.13 9.4 49 38 -4.3 24.2
23:25 1022 30.18 852 25.16 9.4 48.8 37 -4.5 23.9
23:30 1022 30.18 852 25.16 9.5 49 37 -4.4 24
23:35 1022 30.18 852 25.16 9.4 48.8 37 -4.4 24
23:40 1022 30.18 852 25.16 9.5 49.1 35 -5.2 22.6
23:45 1022 30.18 852 25.16 9.9 49.9 35 -4.9 23.3
23:50 1022 30.18 852 25.16 9.7 49.4 36 -4.6 23.7
23:55 1022 30.18 852 25.16 9.5 49.1 37 -4.5 23.9
24:00 1022 30.18 852 25.16 9.5 49 38 -4.3 24.3